sensor_id;sensor_type;location;lat;lon;timestamp;temperature;humidity
32524;DHT22;18965;52.242;20.886;2022-11-15T00:07:31;8.90;78.50
32524;DHT22;18965;52.242;20.886;2022-11-15T00:10:32;9.00;78.70
32524;DHT22;18965;52.242;20.886;2022-11-15T00:20:23;9.00;78.60
32524;DHT22;18965;52.242;20.886;2022-11-15T00:22:49;8.90;78.60
32524;DHT22;18965;52.242;20.886;2022-11-15T00:25:31;9.00;78.30
32524;DHT22;18965;52.242;20.886;2022-11-15T00:28:30;8.90;78.50
32524;DHT22;18965;52.242;20.886;2022-11-15T00:38:00;9.00;78.70
32524;DHT22;18965;52.242;20.886;2022-11-15T00:40:47;8.90;78.70
32524;DHT22;18965;52.242;20.886;2022-11-15T00:43:19;8.90;78.50
32524;DHT22;18965;52.242;20.886;2022-11-15T00:45:45;8.90;78.50
32524;DHT22;18965;52.242;20.886;2022-11-15T00:48:11;8.90;78.60
32524;DHT22;18965;52.242;20.886;2022-11-15T00:54:21;8.90;78.60
32524;DHT22;18965;52.242;20.886;2022-11-15T00:56:50;9.00;78.60
32524;DHT22;18965;52.242;20.886;2022-11-15T00:59:16;8.90;78.50
32524;DHT22;18965;52.242;20.886;2022-11-15T01:01:41;8.90;78.60
32524;DHT22;18965;52.242;20.886;2022-11-15T01:04:10;8.90;78.60
32524;DHT22;18965;52.242;20.886;2022-11-15T01:06:44;8.90;78.70
32524;DHT22;18965;52.242;20.886;2022-11-15T01:09:10;8.90;78.70
32524;DHT22;18965;52.242;20.886;2022-11-15T01:11:48;8.90;78.80
32524;DHT22;18965;52.242;20.886;2022-11-15T01:14:43;8.90;78.80
32524;DHT22;18965;52.242;20.886;2022-11-15T01:17:44;8.90;78.80
32524;DHT22;18965;52.242;20.886;2022-11-15T01:20:13;8.90;78.90
32524;DHT22;18965;52.242;20.886;2022-11-15T01:22:44;9.00;78.80
32524;DHT22;18965;52.242;20.886;2022-11-15T01:29:10;9.00;79.00
32524;DHT22;18965;52.242;20.886;2022-11-15T01:31:42;9.00;78.90
32524;DHT22;18965;52.242;20.886;2022-11-15T01:34:29;8.90;78.80
32524;DHT22;18965;52.242;20.886;2022-11-15T01:42:57;8.90;78.70
32524;DHT22;18965;52.242;20.886;2022-11-15T01:45:26;8.90;78.80
32524;DHT22;18965;52.242;20.886;2022-11-15T01:47:53;8.90;78.90
32524;DHT22;18965;52.242;20.886;2022-11-15T01:54:02;8.90;78.90
32524;DHT22;18965;52.242;20.886;2022-11-15T01:57:25;8.90;79.00
32524;DHT22;18965;52.242;20.886;2022-11-15T01:59:52;8.90;79.10
32524;DHT22;18965;52.242;20.886;2022-11-15T02:05:29;8.90;79.10
32524;DHT22;18965;52.242;20.886;2022-11-15T02:08:19;8.90;79.10
32524;DHT22;18965;52.242;20.886;2022-11-15T02:10:46;8.90;79.10
32524;DHT22;18965;52.242;20.886;2022-11-15T02:13:14;8.90;79.00
32524;DHT22;18965;52.242;20.886;2022-11-15T02:16:38;8.90;78.90
32524;DHT22;18965;52.242;20.886;2022-11-15T02:23:27;8.80;78.90
32524;DHT22;18965;52.242;20.886;2022-11-15T02:41:35;8.80;79.40
32524;DHT22;18965;52.242;20.886;2022-11-15T02:44:51;8.80;79.40
32524;DHT22;18965;52.242;20.886;2022-11-15T02:47:37;8.80;79.30
32524;DHT22;18965;52.242;20.886;2022-11-15T02:53:50;8.80;79.30
32524;DHT22;18965;52.242;20.886;2022-11-15T02:56:19;8.80;79.50
32524;DHT22;18965;52.242;20.886;2022-11-15T03:15:41;8.80;79.40
32524;DHT22;18965;52.242;20.886;2022-11-15T03:21:52;8.80;79.40
32524;DHT22;18965;52.242;20.886;2022-11-15T03:28:05;8.80;79.60
32524;DHT22;18965;52.242;20.886;2022-11-15T03:34:24;8.80;79.60
32524;DHT22;18965;52.242;20.886;2022-11-15T03:47:36;8.70;79.50
32524;DHT22;18965;52.242;20.886;2022-11-15T03:50:30;8.80;79.70
32524;DHT22;18965;52.242;20.886;2022-11-15T03:53:13;8.80;79.70
32524;DHT22;18965;52.242;20.886;2022-11-15T03:55:39;8.80;79.70
32524;DHT22;18965;52.242;20.886;2022-11-15T03:58:28;8.80;79.60
32524;DHT22;18965;52.242;20.886;2022-11-15T04:04:35;8.80;79.60
32524;DHT22;18965;52.242;20.886;2022-11-15T04:07:04;8.80;79.70
32524;DHT22;18965;52.242;20.886;2022-11-15T04:09:31;8.80;79.40
32524;DHT22;18965;52.242;20.886;2022-11-15T04:12:25;8.80;79.40
32524;DHT22;18965;52.242;20.886;2022-11-15T04:15:21;8.70;79.30
32524;DHT22;18965;52.242;20.886;2022-11-15T04:17:58;8.70;79.50
32524;DHT22;18965;52.242;20.886;2022-11-15T04:20:44;8.70;79.60
32524;DHT22;18965;52.242;20.886;2022-11-15T04:23:28;8.70;79.70
32524;DHT22;18965;52.242;20.886;2022-11-15T04:26:21;8.70;79.50
32524;DHT22;18965;52.242;20.886;2022-11-15T04:32:33;8.70;79.70
32524;DHT22;18965;52.242;20.886;2022-11-15T04:35:25;8.70;79.80
32524;DHT22;18965;52.242;20.886;2022-11-15T04:37:55;8.70;79.80
32524;DHT22;18965;52.242;20.886;2022-11-15T04:40:25;8.70;79.60
32524;DHT22;18965;52.242;20.886;2022-11-15T04:43:20;8.70;79.70
32524;DHT22;18965;52.242;20.886;2022-11-15T04:45:57;8.70;79.80
32524;DHT22;18965;52.242;20.886;2022-11-15T04:48:25;8.70;79.80
32524;DHT22;18965;52.242;20.886;2022-11-15T04:51:03;8.70;79.90
32524;DHT22;18965;52.242;20.886;2022-11-15T04:53:53;8.70;79.80
32524;DHT22;18965;52.242;20.886;2022-11-15T04:56:22;8.70;79.80
32524;DHT22;18965;52.242;20.886;2022-11-15T04:59:15;8.70;79.70
32524;DHT22;18965;52.242;20.886;2022-11-15T05:05:28;8.70;79.80
32524;DHT22;18965;52.242;20.886;2022-11-15T05:08:46;8.70;79.80
32524;DHT22;18965;52.242;20.886;2022-11-15T05:14:54;8.70;79.90
32524;DHT22;18965;52.242;20.886;2022-11-15T05:17:32;8.60;79.90
32524;DHT22;18965;52.242;20.886;2022-11-15T05:20:14;8.70;79.80
32524;DHT22;18965;52.242;20.886;2022-11-15T05:22:54;8.60;80.50
32524;DHT22;18965;52.242;20.886;2022-11-15T05:25:38;8.70;79.90
32524;DHT22;18965;52.242;20.886;2022-11-15T05:32:10;8.60;79.90
32524;DHT22;18965;52.242;20.886;2022-11-15T05:34:37;8.60;79.90
32524;DHT22;18965;52.242;20.886;2022-11-15T05:40:43;8.60;80.70
32524;DHT22;18965;52.242;20.886;2022-11-15T05:43:21;8.60;79.90
32524;DHT22;18965;52.242;20.886;2022-11-15T05:46:02;8.60;79.90
32524;DHT22;18965;52.242;20.886;2022-11-15T05:55:10;8.60;79.90
32524;DHT22;18965;52.242;20.886;2022-11-15T05:57:44;8.60;80.00
32524;DHT22;18965;52.242;20.886;2022-11-15T06:00:18;8.60;80.00
32524;DHT22;18965;52.242;20.886;2022-11-15T06:02:46;8.60;80.00
32524;DHT22;18965;52.242;20.886;2022-11-15T06:05:18;8.60;80.00
32524;DHT22;18965;52.242;20.886;2022-11-15T06:07:47;8.60;79.90
32524;DHT22;18965;52.242;20.886;2022-11-15T06:10:18;8.50;79.80
32524;DHT22;18965;52.242;20.886;2022-11-15T06:12:44;8.50;79.90
32524;DHT22;18965;52.242;20.886;2022-11-15T06:15:12;8.50;79.90
32524;DHT22;18965;52.242;20.886;2022-11-15T06:17:41;8.50;80.00
32524;DHT22;18965;52.242;20.886;2022-11-15T06:20:07;8.50;80.00
32524;DHT22;18965;52.242;20.886;2022-11-15T06:22:38;8.60;80.10
32524;DHT22;18965;52.242;20.886;2022-11-15T06:25:10;8.60;80.00
32524;DHT22;18965;52.242;20.886;2022-11-15T06:27:57;8.50;80.00
32524;DHT22;18965;52.242;20.886;2022-11-15T06:30:54;8.50;80.00
32524;DHT22;18965;52.242;20.886;2022-11-15T06:33:22;8.60;80.00
32524;DHT22;18965;52.242;20.886;2022-11-15T06:35:48;8.50;79.90
32524;DHT22;18965;52.242;20.886;2022-11-15T06:38:16;8.50;80.00
32524;DHT22;18965;52.242;20.886;2022-11-15T06:40:42;8.50;80.00
32524;DHT22;18965;52.242;20.886;2022-11-15T06:43:10;8.50;79.90
32524;DHT22;18965;52.242;20.886;2022-11-15T06:45:36;8.50;79.80
32524;DHT22;18965;52.242;20.886;2022-11-15T06:48:02;8.50;79.70
32524;DHT22;18965;52.242;20.886;2022-11-15T06:50:28;8.50;79.60
32524;DHT22;18965;52.242;20.886;2022-11-15T06:52:54;8.50;79.50
32524;DHT22;18965;52.242;20.886;2022-11-15T06:55:20;8.50;79.60
32524;DHT22;18965;52.242;20.886;2022-11-15T06:57:55;8.50;79.60
32524;DHT22;18965;52.242;20.886;2022-11-15T07:00:30;8.50;79.60
32524;DHT22;18965;52.242;20.886;2022-11-15T07:03:02;8.40;79.60
32524;DHT22;18965;52.242;20.886;2022-11-15T07:06:15;8.40;79.70
32524;DHT22;18965;52.242;20.886;2022-11-15T07:08:33;8.50;79.80
32524;DHT22;18965;52.242;20.886;2022-11-15T07:23:25;8.50;79.80
32524;DHT22;18965;52.242;20.886;2022-11-15T07:26:03;8.50;79.80
32524;DHT22;18965;52.242;20.886;2022-11-15T07:28:30;8.50;79.80
32524;DHT22;18965;52.242;20.886;2022-11-15T07:30:56;8.50;79.70
32524;DHT22;18965;52.242;20.886;2022-11-15T07:33:25;8.50;79.60
32524;DHT22;18965;52.242;20.886;2022-11-15T07:36:05;8.60;79.70
32524;DHT22;18965;52.242;20.886;2022-11-15T07:38:35;8.60;79.60
32524;DHT22;18965;52.242;20.886;2022-11-15T07:41:06;8.60;79.70
32524;DHT22;18965;52.242;20.886;2022-11-15T07:43:32;8.60;79.60
32524;DHT22;18965;52.242;20.886;2022-11-15T07:46:07;8.70;79.60
32524;DHT22;18965;52.242;20.886;2022-11-15T07:48:36;8.70;79.60
32524;DHT22;18965;52.242;20.886;2022-11-15T07:51:02;8.70;79.50
32524;DHT22;18965;52.242;20.886;2022-11-15T07:53:28;8.70;79.40
32524;DHT22;18965;52.242;20.886;2022-11-15T07:55:54;8.70;79.40
32524;DHT22;18965;52.242;20.886;2022-11-15T07:58:20;8.70;79.40
32524;DHT22;18965;52.242;20.886;2022-11-15T08:00:47;8.80;79.30
32524;DHT22;18965;52.242;20.886;2022-11-15T08:03:15;8.80;79.30
32524;DHT22;18965;52.242;20.886;2022-11-15T08:05:42;8.80;79.20
32524;DHT22;18965;52.242;20.886;2022-11-15T08:08:09;8.80;79.90
32524;DHT22;18965;52.242;20.886;2022-11-15T08:10:36;8.80;79.20
32524;DHT22;18965;52.242;20.886;2022-11-15T08:13:05;8.90;79.20
32524;DHT22;18965;52.242;20.886;2022-11-15T08:15:32;8.90;79.20
32524;DHT22;18965;52.242;20.886;2022-11-15T08:18:00;8.90;79.10
32524;DHT22;18965;52.242;20.886;2022-11-15T08:20:27;9.00;79.20
32524;DHT22;18965;52.242;20.886;2022-11-15T08:22:56;9.00;79.10
32524;DHT22;18965;52.242;20.886;2022-11-15T08:25:23;9.10;79.00
32524;DHT22;18965;52.242;20.886;2022-11-15T08:27:54;9.10;78.80
32524;DHT22;18965;52.242;20.886;2022-11-15T08:30:24;9.10;78.70
32524;DHT22;18965;52.242;20.886;2022-11-15T08:33:13;9.10;78.70
32524;DHT22;18965;52.242;20.886;2022-11-15T08:35:43;9.20;78.80
32524;DHT22;18965;52.242;20.886;2022-11-15T08:38:32;9.20;78.70
32524;DHT22;18965;52.242;20.886;2022-11-15T08:41:04;9.20;78.60
32524;DHT22;18965;52.242;20.886;2022-11-15T08:43:35;9.20;78.50
32524;DHT22;18965;52.242;20.886;2022-11-15T08:46:01;9.20;79.20
32524;DHT22;18965;52.242;20.886;2022-11-15T08:48:49;9.30;78.60
32524;DHT22;18965;52.242;20.886;2022-11-15T08:51:16;9.30;78.50
32524;DHT22;18965;52.242;20.886;2022-11-15T08:53:45;9.30;78.40
32524;DHT22;18965;52.242;20.886;2022-11-15T08:56:12;9.40;78.30
32524;DHT22;18965;52.242;20.886;2022-11-15T08:58:39;9.40;78.20
32524;DHT22;18965;52.242;20.886;2022-11-15T09:01:06;9.30;78.00
32524;DHT22;18965;52.242;20.886;2022-11-15T09:03:32;9.40;78.00
32524;DHT22;18965;52.242;20.886;2022-11-15T09:05:59;9.40;78.00
32524;DHT22;18965;52.242;20.886;2022-11-15T09:08:29;9.40;78.00
32524;DHT22;18965;52.242;20.886;2022-11-15T09:10:56;9.50;78.00
32524;DHT22;18965;52.242;20.886;2022-11-15T09:13:22;9.50;78.00
32524;DHT22;18965;52.242;20.886;2022-11-15T09:15:48;9.50;78.10
32524;DHT22;18965;52.242;20.886;2022-11-15T09:18:14;9.60;78.00
32524;DHT22;18965;52.242;20.886;2022-11-15T09:20:39;9.60;77.80
32524;DHT22;18965;52.242;20.886;2022-11-15T09:23:05;9.60;77.60
32524;DHT22;18965;52.242;20.886;2022-11-15T09:25:32;9.60;77.40
32524;DHT22;18965;52.242;20.886;2022-11-15T09:27:58;9.60;77.40
32524;DHT22;18965;52.242;20.886;2022-11-15T09:30:26;9.70;77.50
32524;DHT22;18965;52.242;20.886;2022-11-15T09:32:51;9.70;77.50
32524;DHT22;18965;52.242;20.886;2022-11-15T09:35:17;9.70;77.30
32524;DHT22;18965;52.242;20.886;2022-11-15T09:37:48;9.70;77.30
32524;DHT22;18965;52.242;20.886;2022-11-15T09:40:16;9.70;77.40
32524;DHT22;18965;52.242;20.886;2022-11-15T09:42:50;9.70;77.40
32524;DHT22;18965;52.242;20.886;2022-11-15T09:45:23;9.70;77.40
32524;DHT22;18965;52.242;20.886;2022-11-15T09:50:56;9.80;77.40
32524;DHT22;18965;52.242;20.886;2022-11-15T09:53:51;9.80;77.20
32524;DHT22;18965;52.242;20.886;2022-11-15T09:56:25;9.80;77.10
32524;DHT22;18965;52.242;20.886;2022-11-15T10:04:49;9.90;77.20
32524;DHT22;18965;52.242;20.886;2022-11-15T10:07:40;9.90;77.20
32524;DHT22;18965;52.242;20.886;2022-11-15T10:10:24;9.90;77.10
32524;DHT22;18965;52.242;20.886;2022-11-15T10:12:57;9.90;77.00
32524;DHT22;18965;52.242;20.886;2022-11-15T10:15:30;9.90;77.00
32524;DHT22;18965;52.242;20.886;2022-11-15T10:18:38;10.00;77.10
32524;DHT22;18965;52.242;20.886;2022-11-15T10:24:31;10.00;76.80
32524;DHT22;18965;52.242;20.886;2022-11-15T10:27:00;10.10;76.90
32524;DHT22;18965;52.242;20.886;2022-11-15T10:29:26;10.10;76.80
32524;DHT22;18965;52.242;20.886;2022-11-15T10:31:59;10.10;76.70
32524;DHT22;18965;52.242;20.886;2022-11-15T10:34:38;10.10;76.70
32524;DHT22;18965;52.242;20.886;2022-11-15T10:37:13;10.20;76.80
32524;DHT22;18965;52.242;20.886;2022-11-15T10:40:01;10.20;76.70
32524;DHT22;18965;52.242;20.886;2022-11-15T10:42:34;10.20;76.60
32524;DHT22;18965;52.242;20.886;2022-11-15T10:45:27;10.20;76.60
32524;DHT22;18965;52.242;20.886;2022-11-15T10:48:19;10.30;76.70
32524;DHT22;18965;52.242;20.886;2022-11-15T10:54:00;10.30;76.50
32524;DHT22;18965;52.242;20.886;2022-11-15T10:56:27;10.30;76.50
32524;DHT22;18965;52.242;20.886;2022-11-15T10:58:57;10.40;76.40
32524;DHT22;18965;52.242;20.886;2022-11-15T11:01:25;10.40;76.20
32524;DHT22;18965;52.242;20.886;2022-11-15T11:04:19;10.40;76.10
32524;DHT22;18965;52.242;20.886;2022-11-15T11:07:28;10.40;76.20
32524;DHT22;18965;52.242;20.886;2022-11-15T11:10:25;10.40;76.10
32524;DHT22;18965;52.242;20.886;2022-11-15T11:13:24;10.40;76.10
32524;DHT22;18965;52.242;20.886;2022-11-15T11:19:10;10.50;76.10
32524;DHT22;18965;52.242;20.886;2022-11-15T11:25:04;10.50;76.00
32524;DHT22;18965;52.242;20.886;2022-11-15T11:30:19;10.50;76.10
32524;DHT22;18965;52.242;20.886;2022-11-15T11:44:14;10.60;75.80
32524;DHT22;18965;52.242;20.886;2022-11-15T11:53:31;10.60;75.60
32524;DHT22;18965;52.242;20.886;2022-11-15T12:06:01;10.60;75.50
32524;DHT22;18965;52.242;20.886;2022-11-15T12:09:11;10.60;75.70
32524;DHT22;18965;52.242;20.886;2022-11-15T12:17:44;10.60;75.60
32524;DHT22;18965;52.242;20.886;2022-11-15T12:20:25;10.60;75.70
32524;DHT22;18965;52.242;20.886;2022-11-15T12:28:54;10.60;75.50
32524;DHT22;18965;52.242;20.886;2022-11-15T12:37:46;10.50;75.60
32524;DHT22;18965;52.242;20.886;2022-11-15T12:45:43;10.40;75.70
32524;DHT22;18965;52.242;20.886;2022-11-15T12:51:03;10.40;75.60
32524;DHT22;18965;52.242;20.886;2022-11-15T12:53:53;10.40;75.60
32524;DHT22;18965;52.242;20.886;2022-11-15T12:56:28;10.40;75.60
32524;DHT22;18965;52.242;20.886;2022-11-15T12:59:06;10.40;75.60
32524;DHT22;18965;52.242;20.886;2022-11-15T13:04:32;10.40;75.80
32524;DHT22;18965;52.242;20.886;2022-11-15T13:19:19;10.30;76.10
32524;DHT22;18965;52.242;20.886;2022-11-15T13:27:50;10.20;76.30
32524;DHT22;18965;52.242;20.886;2022-11-15T13:30:38;10.30;76.20
32524;DHT22;18965;52.242;20.886;2022-11-15T13:37:01;10.20;76.20
32524;DHT22;18965;52.242;20.886;2022-11-15T13:43:39;10.20;76.20
32524;DHT22;18965;52.242;20.886;2022-11-15T13:46:29;10.10;76.20
32524;DHT22;18965;52.242;20.886;2022-11-15T13:49:17;10.10;76.10
32524;DHT22;18965;52.242;20.886;2022-11-15T13:52:01;10.00;76.10
32524;DHT22;18965;52.242;20.886;2022-11-15T13:54:59;10.00;76.20
32524;DHT22;18965;52.242;20.886;2022-11-15T13:58:08;9.90;76.00
32524;DHT22;18965;52.242;20.886;2022-11-15T14:01:11;9.90;76.00
32524;DHT22;18965;52.242;20.886;2022-11-15T14:07:31;9.70;76.00
32524;DHT22;18965;52.242;20.886;2022-11-15T14:13:35;9.60;76.40
32524;DHT22;18965;52.242;20.886;2022-11-15T14:16:19;9.60;76.60
32524;DHT22;18965;52.242;20.886;2022-11-15T14:22:24;9.50;76.50
32524;DHT22;18965;52.242;20.886;2022-11-15T14:27:40;9.50;76.90
32524;DHT22;18965;52.242;20.886;2022-11-15T14:30:14;9.50;77.10
32524;DHT22;18965;52.242;20.886;2022-11-15T14:32:52;9.50;77.30
32524;DHT22;18965;52.242;20.886;2022-11-15T14:38:47;9.50;77.50
32524;DHT22;18965;52.242;20.886;2022-11-15T14:42:07;9.50;77.50
32524;DHT22;18965;52.242;20.886;2022-11-15T14:59:53;9.30;77.40
32524;DHT22;18965;52.242;20.886;2022-11-15T15:02:30;9.30;77.50
32524;DHT22;18965;52.242;20.886;2022-11-15T15:24:58;9.20;77.70
32524;DHT22;18965;52.242;20.886;2022-11-15T15:27:41;9.10;78.50
32524;DHT22;18965;52.242;20.886;2022-11-15T15:30:50;9.20;77.90
32524;DHT22;18965;52.242;20.886;2022-11-15T15:40:39;9.10;77.60
32524;DHT22;18965;52.242;20.886;2022-11-15T15:43:07;9.00;77.60
32524;DHT22;18965;52.242;20.886;2022-11-15T15:46:22;8.90;77.70
32524;DHT22;18965;52.242;20.886;2022-11-15T15:48:59;8.90;77.90
32524;DHT22;18965;52.242;20.886;2022-11-15T15:51:41;9.00;78.00
32524;DHT22;18965;52.242;20.886;2022-11-15T15:54:09;8.90;78.00
32524;DHT22;18965;52.242;20.886;2022-11-15T16:00:25;8.90;78.40
32524;DHT22;18965;52.242;20.886;2022-11-15T16:03:06;8.90;78.50
32524;DHT22;18965;52.242;20.886;2022-11-15T16:05:51;8.90;78.50
32524;DHT22;18965;52.242;20.886;2022-11-15T16:08:26;8.90;78.50
32524;DHT22;18965;52.242;20.886;2022-11-15T16:11:00;8.90;78.50
32524;DHT22;18965;52.242;20.886;2022-11-15T16:13:46;8.90;78.50
32524;DHT22;18965;52.242;20.886;2022-11-15T16:16:13;8.90;78.50
32524;DHT22;18965;52.242;20.886;2022-11-15T16:19:35;8.90;78.40
32524;DHT22;18965;52.242;20.886;2022-11-15T16:25:10;8.90;78.60
32524;DHT22;18965;52.242;20.886;2022-11-15T16:27:47;8.90;78.70
32524;DHT22;18965;52.242;20.886;2022-11-15T17:08:46;8.60;79.10
32524;DHT22;18965;52.242;20.886;2022-11-15T17:11:23;8.50;79.00
32524;DHT22;18965;52.242;20.886;2022-11-15T17:20:40;8.50;79.40
32524;DHT22;18965;52.242;20.886;2022-11-15T17:23:53;8.50;79.40
32524;DHT22;18965;52.242;20.886;2022-11-15T17:45:14;8.60;80.00
32524;DHT22;18965;52.242;20.886;2022-11-15T17:47:42;8.50;79.90
32524;DHT22;18965;52.242;20.886;2022-11-15T17:50:35;8.50;79.90
32524;DHT22;18965;52.242;20.886;2022-11-15T18:11:14;8.20;80.00
32524;DHT22;18965;52.242;20.886;2022-11-15T18:14:40;8.10;80.10
32524;DHT22;18965;52.242;20.886;2022-11-15T18:36:28;8.00;80.70
32524;DHT22;18965;52.242;20.886;2022-11-15T18:39:11;8.10;80.60
32524;DHT22;18965;52.242;20.886;2022-11-15T18:41:42;8.10;80.50
32524;DHT22;18965;52.242;20.886;2022-11-15T18:44:11;8.00;80.40
32524;DHT22;18965;52.242;20.886;2022-11-15T18:46:37;8.00;80.50
32524;DHT22;18965;52.242;20.886;2022-11-15T18:49:10;8.00;80.70
32524;DHT22;18965;52.242;20.886;2022-11-15T18:51:37;8.00;80.70
32524;DHT22;18965;52.242;20.886;2022-11-15T18:54:06;7.90;80.60
32524;DHT22;18965;52.242;20.886;2022-11-15T18:56:33;7.90;80.60
32524;DHT22;18965;52.242;20.886;2022-11-15T18:59:00;7.90;80.70
32524;DHT22;18965;52.242;20.886;2022-11-15T19:01:29;7.80;80.80
32524;DHT22;18965;52.242;20.886;2022-11-15T19:03:57;7.80;80.90
32524;DHT22;18965;52.242;20.886;2022-11-15T19:06:27;7.70;81.40
32524;DHT22;18965;52.242;20.886;2022-11-15T19:08:57;7.70;80.90
32524;DHT22;18965;52.242;20.886;2022-11-15T19:11:31;7.70;81.10
32524;DHT22;18965;52.242;20.886;2022-11-15T19:14:31;7.70;81.30
32524;DHT22;18965;52.242;20.886;2022-11-15T19:17:00;7.60;81.30
32524;DHT22;18965;52.242;20.886;2022-11-15T19:19:27;7.70;81.70
32524;DHT22;18965;52.242;20.886;2022-11-15T19:21:53;7.70;82.20
32524;DHT22;18965;52.242;20.886;2022-11-15T19:24:20;7.60;81.40
32524;DHT22;18965;52.242;20.886;2022-11-15T19:26:46;7.60;81.40
32524;DHT22;18965;52.242;20.886;2022-11-15T19:29:12;7.60;81.30
32524;DHT22;18965;52.242;20.886;2022-11-15T19:31:47;7.60;81.40
32524;DHT22;18965;52.242;20.886;2022-11-15T19:34:19;7.60;81.60
32524;DHT22;18965;52.242;20.886;2022-11-15T19:36:57;7.70;81.70
32524;DHT22;18965;52.242;20.886;2022-11-15T19:39:32;7.70;81.70
32524;DHT22;18965;52.242;20.886;2022-11-15T19:42:06;7.80;81.90
32524;DHT22;18965;52.242;20.886;2022-11-15T19:44:53;7.80;81.70
32524;DHT22;18965;52.242;20.886;2022-11-15T19:47:22;7.70;81.70
32524;DHT22;18965;52.242;20.886;2022-11-15T19:49:51;7.80;81.70
32524;DHT22;18965;52.242;20.886;2022-11-15T19:52:17;7.80;81.50
32524;DHT22;18965;52.242;20.886;2022-11-15T19:54:45;7.80;81.40
32524;DHT22;18965;52.242;20.886;2022-11-15T19:57:11;7.80;81.40
32524;DHT22;18965;52.242;20.886;2022-11-15T19:59:40;7.80;81.50
32524;DHT22;18965;52.242;20.886;2022-11-15T20:02:07;7.70;81.50
32524;DHT22;18965;52.242;20.886;2022-11-15T20:04:33;7.70;81.40
32524;DHT22;18965;52.242;20.886;2022-11-15T20:06:59;7.70;81.30
32524;DHT22;18965;52.242;20.886;2022-11-15T20:09:25;7.70;81.40
32524;DHT22;18965;52.242;20.886;2022-11-15T20:12:06;7.70;81.30
32524;DHT22;18965;52.242;20.886;2022-11-15T20:14:53;7.60;81.20
32524;DHT22;18965;52.242;20.886;2022-11-15T20:17:21;7.50;81.10
32524;DHT22;18965;52.242;20.886;2022-11-15T20:20:17;7.50;81.00
32524;DHT22;18965;52.242;20.886;2022-11-15T20:22:46;7.50;81.20
32524;DHT22;18965;52.242;20.886;2022-11-15T20:25:15;7.50;81.30
32524;DHT22;18965;52.242;20.886;2022-11-15T20:27:51;7.50;81.30
32524;DHT22;18965;52.242;20.886;2022-11-15T20:30:24;7.50;81.40
32524;DHT22;18965;52.242;20.886;2022-11-15T20:32:50;7.50;82.10
32524;DHT22;18965;52.242;20.886;2022-11-15T20:35:16;7.50;81.30
32524;DHT22;18965;52.242;20.886;2022-11-15T20:37:52;7.50;81.30
32524;DHT22;18965;52.242;20.886;2022-11-15T20:40:44;7.40;81.40
32524;DHT22;18965;52.242;20.886;2022-11-15T20:43:18;7.40;81.60
32524;DHT22;18965;52.242;20.886;2022-11-15T20:45:46;7.40;81.50
32524;DHT22;18965;52.242;20.886;2022-11-15T20:48:13;7.40;81.50
32524;DHT22;18965;52.242;20.886;2022-11-15T20:50:43;7.40;81.50
32524;DHT22;18965;52.242;20.886;2022-11-15T20:53:12;7.40;81.80
32524;DHT22;18965;52.242;20.886;2022-11-15T20:55:45;7.40;81.90
32524;DHT22;18965;52.242;20.886;2022-11-15T20:58:20;7.30;82.00
32524;DHT22;18965;52.242;20.886;2022-11-15T21:01:01;7.30;81.90
32524;DHT22;18965;52.242;20.886;2022-11-15T21:03:31;7.30;82.00
32524;DHT22;18965;52.242;20.886;2022-11-15T21:06:01;7.30;81.90
32524;DHT22;18965;52.242;20.886;2022-11-15T21:08:28;7.30;81.90
32524;DHT22;18965;52.242;20.886;2022-11-15T21:11:23;7.40;82.00
32524;DHT22;18965;52.242;20.886;2022-11-15T21:14:34;7.40;82.00
32524;DHT22;18965;52.242;20.886;2022-11-15T21:17:20;7.40;82.10
32524;DHT22;18965;52.242;20.886;2022-11-15T21:19:46;7.30;81.90
32524;DHT22;18965;52.242;20.886;2022-11-15T21:22:15;7.30;81.70
32524;DHT22;18965;52.242;20.886;2022-11-15T21:24:59;7.30;81.80
32524;DHT22;18965;52.242;20.886;2022-11-15T21:27:53;7.30;82.00
32524;DHT22;18965;52.242;20.886;2022-11-15T21:30:23;7.30;82.00
32524;DHT22;18965;52.242;20.886;2022-11-15T21:32:49;7.30;82.20
32524;DHT22;18965;52.242;20.886;2022-11-15T21:35:19;7.30;82.00
32524;DHT22;18965;52.242;20.886;2022-11-15T21:37:48;7.30;82.10
32524;DHT22;18965;52.242;20.886;2022-11-15T21:40:16;7.40;82.30
32524;DHT22;18965;52.242;20.886;2022-11-15T21:42:42;7.30;82.10
32524;DHT22;18965;52.242;20.886;2022-11-15T21:45:09;7.30;82.00
32524;DHT22;18965;52.242;20.886;2022-11-15T21:47:41;7.40;82.20
32524;DHT22;18965;52.242;20.886;2022-11-15T21:50:08;7.40;82.30
32524;DHT22;18965;52.242;20.886;2022-11-15T21:52:37;7.50;82.40
32524;DHT22;18965;52.242;20.886;2022-11-15T21:55:03;7.40;82.10
32524;DHT22;18965;52.242;20.886;2022-11-15T21:57:29;7.50;82.00
32524;DHT22;18965;52.242;20.886;2022-11-15T22:00:01;7.50;81.80
32524;DHT22;18965;52.242;20.886;2022-11-15T22:02:45;7.50;81.80
32524;DHT22;18965;52.242;20.886;2022-11-15T22:05:17;7.50;81.70
32524;DHT22;18965;52.242;20.886;2022-11-15T22:07:47;7.50;81.70
32524;DHT22;18965;52.242;20.886;2022-11-15T22:10:48;7.50;81.70
32524;DHT22;18965;52.242;20.886;2022-11-15T22:13:24;7.40;81.60
32524;DHT22;18965;52.242;20.886;2022-11-15T22:15:51;7.50;81.70
32524;DHT22;18965;52.242;20.886;2022-11-15T22:18:21;7.50;81.80
32524;DHT22;18965;52.242;20.886;2022-11-15T22:21:03;7.50;81.80
32524;DHT22;18965;52.242;20.886;2022-11-15T22:24:09;7.60;82.60
32524;DHT22;18965;52.242;20.886;2022-11-15T22:26:52;7.60;82.00
32524;DHT22;18965;52.242;20.886;2022-11-15T22:29:24;7.70;81.90
32524;DHT22;18965;52.242;20.886;2022-11-15T22:31:50;7.60;81.70
32524;DHT22;18965;52.242;20.886;2022-11-15T22:34:19;7.50;81.70
32524;DHT22;18965;52.242;20.886;2022-11-15T22:36:45;7.60;81.90
32524;DHT22;18965;52.242;20.886;2022-11-15T22:39:12;7.60;82.00
32524;DHT22;18965;52.242;20.886;2022-11-15T22:41:49;7.60;81.90
32524;DHT22;18965;52.242;20.886;2022-11-15T22:44:48;7.70;82.00
32524;DHT22;18965;52.242;20.886;2022-11-15T22:47:14;7.70;81.90
32524;DHT22;18965;52.242;20.886;2022-11-15T22:49:44;7.70;81.70
32524;DHT22;18965;52.242;20.886;2022-11-15T22:52:11;7.70;81.80
32524;DHT22;18965;52.242;20.886;2022-11-15T22:54:41;7.70;81.80
32524;DHT22;18965;52.242;20.886;2022-11-15T22:57:16;7.70;81.80
32524;DHT22;18965;52.242;20.886;2022-11-15T22:59:42;7.70;81.70
32524;DHT22;18965;52.242;20.886;2022-11-15T23:02:11;7.70;81.70
32524;DHT22;18965;52.242;20.886;2022-11-15T23:04:37;7.70;81.70
32524;DHT22;18965;52.242;20.886;2022-11-15T23:07:03;7.70;81.70
32524;DHT22;18965;52.242;20.886;2022-11-15T23:09:41;7.70;81.80
32524;DHT22;18965;52.242;20.886;2022-11-15T23:12:21;7.70;81.90
32524;DHT22;18965;52.242;20.886;2022-11-15T23:15:29;7.70;81.70
32524;DHT22;18965;52.242;20.886;2022-11-15T23:18:17;7.80;81.80
32524;DHT22;18965;52.242;20.886;2022-11-15T23:20:52;7.70;81.70
32524;DHT22;18965;52.242;20.886;2022-11-15T23:23:30;7.70;81.60